Hillcrest Heights, Maryland
Current Conditions -  °F | °C
As of 7:58 AM on Tuesday 21 Oct 2014 (Local Time) from KADW Reporting Station
Overcast Overcast  
Wind Chill: 49°   Ceiling: 11000
Heat Index: 49°   Visibility: 10mi
Dew Point: 47°   Wind: 0mph
Humidity: 92%   Direction: NA
Pressure: 29.86"   Gusts: NA
Location:  38.8182°N, 76.9414°W
Report Text: KADW 211158Z AUTO 00000KT 10SM OVC110 10/08 A2986 RMK AO2 SLP119 T00960083 10137 20089 55001 $
Loading
Personal Weather Stations






























Interactive Weather Map
Tropical Storm Tracking
New forecast layout! Learn more

10-Day Weather Forecast

Advertisements
Track Severe Weather on mobile